Autopride — CQQE — position and weather

sailwx.info

Track history (hours):
 
Tides and Currents Weather Stations Pressure Air Temp Water Temp Dewpoint Dewpoint Depression Visibility Wind Speed Wind Dir Waves Ship Positions

Autopride

Last reported at 2014-Oct-23 03:33 UTC. Time now 2014-Oct-23 03:57 UTC.
Position N 36°20' W 008°11'.

Length 125 m; draft 5.5 m.

Type: Cargo ship. MMSI: 255801560.

Date/timePositionNaut miles runAvg speedWind from/ knotsBaromVisibWave heightAir tempDewpointWater temp
2014-Oct-23 03:33N 36°20' W 008°11'1110.4
2014-Oct-23 02:28N 36°24' W 008°25'1010.8
2014-Oct-23 01:33N 36°26' W 008°37'1110.7
2014-Oct-23 00:34N 36°29' W 008°49'1110.9
2014-Oct-22 23:31N 36°32' W 009°03'1510.6
2014-Oct-22 22:09N 36°38' W 009°20'810.9
2014-Oct-22 21:26N 36°43' W 009°27'910.6
2014-Oct-22 20:34N 36°51' W 009°33'1111.2
2014-Oct-22 19:33N 37°02' W 009°36'1111.1
2014-Oct-22 18:34N 37°13' W 009°39'1110.8
2014-Oct-22 17:33N 37°23' W 009°42'1110.9
2014-Oct-22 16:33N 37°34' W 009°45'1111.2
2014-Oct-22 15:33N 37°45' W 009°49'1111.2
2014-Oct-22 14:33N 37°56' W 009°52'1110.8
2014-Oct-22 13:33N 38°06' W 009°55'1110.7
2014-Oct-22 12:33N 38°17' W 009°58'1010.5
2014-Oct-22 11:33N 38°27' W 010°01'1110.7
2014-Oct-22 10:33N 38°38' W 010°04'1110.8
2014-Oct-22 09:33N 38°48' W 010°05'1110.7
2014-Oct-22 08:33N 38°59' W 010°03'1111.2
2014-Oct-22 07:33N 39°10' W 009°60'13911.5
2014-Oct-21 19:25N 41°24' W 009°13'199 4.1
2014-Oct-19 18:33N 38°06' W 009°41'1111.5
2014-Oct-19 17:33N 37°55' W 009°37'1111.4
2014-Oct-19 16:33N 37°44' W 009°34'1111.2
2014-Oct-19 15:33N 37°33' W 009°30'1511.7
2014-Oct-19 14:15N 37°18' W 009°26'812.1
2014-Oct-19 13:33N 37°10' W 009°24'1311.8
2014-Oct-19 12:29N 36°57' W 009°21'1111.3
2014-Oct-19 11:32N 36°48' W 009°14'1210.9
2014-Oct-19 10:24N 36°42' W 009°01'911.1
2014-Oct-19 09:34N 36°39' W 008°49'1111.3
2014-Oct-19 08:34N 36°35' W 008°36'1211.3
2014-Oct-19 07:27N 36°31' W 008°22'1011.3
2014-Oct-19 06:33N 36°28' W 008°10'1111.4
2014-Oct-19 05:34N 36°24' W 007°56'1311.5
2014-Oct-19 04:28N 36°21' W 007°41'1311.6
2014-Oct-19 03:20N 36°17' W 007°26'911.6
2014-Oct-19 02:33N 36°14' W 007°15'1211.6
2014-Oct-19 01:33N 36°11' W 007°01'1111.0
2014-Oct-19 00:33N 36°07' W 006°48'1111.2
2014-Oct-18 23:33N 36°04' W 006°35'1211.6
2014-Oct-18 22:31N 35°60' W 006°21'1111.7
2014-Oct-18 21:33N 35°57' W 006°07'1212.4
2014-Oct-18 20:33N 35°58' W 005°52'1312.6
2014-Oct-18 19:34N 35°58' W 005°37'1110.9
2014-Oct-18 18:33N 36°01' W 005°23'1010.0
2014-Oct-18 17:34N 36°02' W 005°11'21210.0
2014-Oct-17 20:21N 36°35' W 000°51'8 9.7
2014-Oct-17 19:33N 36°36' W 000°41'10 9.7
2014-Oct-17 18:32N 36°37' W 000°29'10 9.7
2014-Oct-17 17:33N 36°39' W 000°17'10 9.7
2014-Oct-17 16:34N 36°40' W 000°06'1211.8
2014-Oct-17 15:33N 36°42' E 000°09'1212.2
2014-Oct-17 14:33N 36°44' E 000°24'1212.3
2014-Oct-17 13:33N 36°46' E 000°39'1211.5
2014-Oct-17 12:28N 36°49' E 000°54'1010.6
2014-Oct-17 11:33N 36°48' E 001°06'1010.5
2014-Oct-17 10:33N 36°49' E 001°19'7010.9
2014-Oct-17 04:09N 37°01' E 002°46'  
Track history (hours):
 
Tides and Currents Weather Stations Pressure Air Temp Water Temp Dewpoint Dewpoint Depression Visibility Wind Speed Wind Dir Waves Ship Positions

Autopride

Last reported at 2014-Oct-23 03:33 UTC. Time now 2014-Oct-23 03:57 UTC.
Position N 36°20' W 008°11'.

Length 125 m; draft 5.5 m.

Type: Cargo ship. MMSI: 255801560.

Date/timePositionNaut miles runAvg speedWind from/ knotsBaromVisibWave heightAir tempDewpointWater temp
2014-Oct-23 03:33N 36°20' W 008°11'1110.4
2014-Oct-23 02:28N 36°24' W 008°25'1010.8
2014-Oct-23 01:33N 36°26' W 008°37'1110.7
2014-Oct-23 00:34N 36°29' W 008°49'1110.9
2014-Oct-22 23:31N 36°32' W 009°03'1510.6
2014-Oct-22 22:09N 36°38' W 009°20'810.9
2014-Oct-22 21:26N 36°43' W 009°27'910.6
2014-Oct-22 20:34N 36°51' W 009°33'1111.2
2014-Oct-22 19:33N 37°02' W 009°36'1111.1
2014-Oct-22 18:34N 37°13' W 009°39'1110.8
2014-Oct-22 17:33N 37°23' W 009°42'1110.9
2014-Oct-22 16:33N 37°34' W 009°45'1111.2
2014-Oct-22 15:33N 37°45' W 009°49'1111.2
2014-Oct-22 14:33N 37°56' W 009°52'1110.8
2014-Oct-22 13:33N 38°06' W 009°55'1110.7
2014-Oct-22 12:33N 38°17' W 009°58'1010.5
2014-Oct-22 11:33N 38°27' W 010°01'1110.7
2014-Oct-22 10:33N 38°38' W 010°04'1110.8
2014-Oct-22 09:33N 38°48' W 010°05'1110.7
2014-Oct-22 08:33N 38°59' W 010°03'1111.2
2014-Oct-22 07:33N 39°10' W 009°60'13911.5
2014-Oct-21 19:25N 41°24' W 009°13'199 4.1
2014-Oct-19 18:33N 38°06' W 009°41'1111.5
2014-Oct-19 17:33N 37°55' W 009°37'1111.4
2014-Oct-19 16:33N 37°44' W 009°34'1111.2
2014-Oct-19 15:33N 37°33' W 009°30'1511.7
2014-Oct-19 14:15N 37°18' W 009°26'812.1
2014-Oct-19 13:33N 37°10' W 009°24'1311.8
2014-Oct-19 12:29N 36°57' W 009°21'1111.3
2014-Oct-19 11:32N 36°48' W 009°14'1210.9
2014-Oct-19 10:24N 36°42' W 009°01'911.1
2014-Oct-19 09:34N 36°39' W 008°49'1111.3
2014-Oct-19 08:34N 36°35' W 008°36'1211.3
2014-Oct-19 07:27N 36°31' W 008°22'1011.3
2014-Oct-19 06:33N 36°28' W 008°10'1111.4
2014-Oct-19 05:34N 36°24' W 007°56'1311.5
2014-Oct-19 04:28N 36°21' W 007°41'1311.6
2014-Oct-19 03:20N 36°17' W 007°26'911.6
2014-Oct-19 02:33N 36°14' W 007°15'1211.6
2014-Oct-19 01:33N 36°11' W 007°01'1111.0
2014-Oct-19 00:33N 36°07' W 006°48'1111.2
2014-Oct-18 23:33N 36°04' W 006°35'1211.6
2014-Oct-18 22:31N 35°60' W 006°21'1111.7
2014-Oct-18 21:33N 35°57' W 006°07'1212.4
2014-Oct-18 20:33N 35°58' W 005°52'1312.6
2014-Oct-18 19:34N 35°58' W 005°37'1110.9
2014-Oct-18 18:33N 36°01' W 005°23'1010.0
2014-Oct-18 17:34N 36°02' W 005°11'21210.0
2014-Oct-17 20:21N 36°35' W 000°51'8 9.7
2014-Oct-17 19:33N 36°36' W 000°41'10 9.7
2014-Oct-17 18:32N 36°37' W 000°29'10 9.7
2014-Oct-17 17:33N 36°39' W 000°17'10 9.7
2014-Oct-17 16:34N 36°40' W 000°06'1211.8
2014-Oct-17 15:33N 36°42' E 000°09'1212.2
2014-Oct-17 14:33N 36°44' E 000°24'1212.3
2014-Oct-17 13:33N 36°46' E 000°39'1211.5
2014-Oct-17 12:28N 36°49' E 000°54'1010.6
2014-Oct-17 11:33N 36°48' E 001°06'1010.5
2014-Oct-17 10:33N 36°49' E 001°19'7010.9
2014-Oct-17 04:09N 37°01' E 002°46'  

Dump ship's entire track history